LKCH weather

Chomutov Airfield
Chomutov, Ústí nad Labem Region, Czechia

Public forecast

Using degrees Celsius for public forecast. Weather courtesy of forecast.io.

METAR (pilot weather report)

Closest report is Karlovy Vary International Airport, 26.5 nm (49.1 km) SW. Retrieved 2019/04/24 17:30 UTC (28 minutes ago):

LKKV 241730Z 07010KT CAVOK 16/09 Q1006

TAF (pilot weather forecast)

Closest forecast is Karlovy Vary International Airport, 26.5 nm (49.1 km) SW. Retrieved 2019/04/24 12:18 UTC (6 hours ago):

TAF LKKV 241100Z 2412/2518 13008KT CAVOK PROB30 TEMPO 2500/2517 24006KT